Time;durP1;ratioP1;P1;durP2;ratioP2;P2;SDS_P1;SDS_P2;PMS_P1;PMS_P2;Temp;Humidity;BMP_temperature;BMP_pressure;BME280_temperature;BME280_humidity;BME280_pressure;Samples;Min_cycle;Max_cycle;Signal;HPM_P1;HPM_P2
2021/01/22 11:47:33;;;;;;;2.23;1.33;;;24.90;22.20;;;;;;5008631;27;20950;-62
2021/01/22 11:51:42;;;;;;;1.80;1.30;;;24.20;22.40;;;;;;5084925;27;20552;-58
2021/01/22 11:54:08;;;;;;;3.23;1.30;;;23.70;21.60;;;;;;5053475;28;20233;-57
2021/01/22 11:56:34;;;;;;;4.30;1.70;;;23.30;21.90;;;;;;5078641;28;20716;-60
2021/01/22 11:58:59;;;;;;;46.50;15.00;;;23.20;22.30;;;;;;5072769;28;20214;-56
2021/01/22 12:01:25;;;;;;;49.38;16.33;;;23.20;22.70;;;;;;5083959;28;20208;-60
2021/01/22 12:03:51;;;;;;;40.63;14.47;;;23.10;22.60;;;;;;5082141;28;20233;-60
2021/01/22 12:06:17;;;;;;;35.55;13.48;;;23.10;22.70;;;;;;5087926;28;20222;-59
2021/01/22 12:08:43;;;;;;;39.10;14.38;;;23.20;22.90;;;;;;5079814;28;20205;-60
2021/01/22 12:11:09;;;;;;;28.23;12.18;;;23.30;23.70;;;;;;5085476;28;20695;-59
2021/01/22 12:13:35;;;;;;;33.13;13.23;;;23.40;23.80;;;;;;5083554;28;20217;-59
2021/01/22 12:16:01;;;;;;;35.22;12.60;;;23.50;24.00;;;;;;5068556;28;20205;-59
2021/01/22 12:18:27;;;;;;;36.75;13.60;;;23.50;24.40;;;;;;5072644;28;20207;-59
2021/01/22 12:20:53;;;;;;;33.95;13.57;;;23.50;24.50;;;;;;5068394;28;20205;-61
2021/01/22 12:23:19;;;;;;;28.37;12.20;;;23.60;24.60;;;;;;5067682;28;20636;-59
2021/01/22 12:25:46;;;;;;;27.08;12.57;;;23.60;25.00;;;;;;5068495;28;20223;-62
2021/01/22 12:28:12;;;;;;;29.02;11.80;;;23.60;25.20;;;;;;5067922;28;20243;-61
2021/01/22 12:30:38;;;;;;;21.63;9.07;;;23.50;25.50;;;;;;5068144;28;20231;-59
2021/01/22 12:33:04;;;;;;;24.15;8.50;;;23.30;24.30;;;;;;5067390;28;20201;-59
2021/01/22 12:38:07;;;;;;;14.57;6.95;;;23.30;24.30;;;;;;5328645;22;20313;-58
2021/01/22 12:40:32;;;;;;;17.52;7.22;;;23.50;25.00;;;;;;5035708;28;20201;-56
2021/01/22 12:42:58;;;;;;;17.35;7.43;;;23.50;24.70;;;;;;5027037;28;20313;-58
2021/01/22 12:45:24;;;;;;;14.48;6.75;;;23.50;24.90;;;;;;5025664;28;20211;-57
2021/01/22 12:47:50;;;;;;;17.42;6.15;;;23.50;25.40;;;;;;5023919;28;20226;-58
2021/01/22 12:50:16;;;;;;;13.90;6.10;;;23.50;25.70;;;;;;5023667;28;20234;-57
2021/01/22 12:52:42;;;;;;;12.50;5.90;;;23.50;25.90;;;;;;5036402;28;20218;-58
2021/01/22 12:55:08;;;;;;;12.27;5.68;;;23.50;26.00;;;;;;5042934;28;20589;-57
2021/01/22 12:57:34;;;;;;;12.15;5.50;;;23.50;26.00;;;;;;5042110;28;20957;-58
2021/01/22 13:00:00;;;;;;;10.98;4.82;;;23.50;26.00;;;;;;5041482;28;20210;-58
2021/01/22 13:02:26;;;;;;;9.80;4.95;;;23.50;26.00;;;;;;5036385;28;20210;-58
2021/01/22 13:04:52;;;;;;;7.32;3.90;;;23.50;26.30;;;;;;5034058;28;20217;-58
2021/01/22 13:07:18;;;;;;;10.82;4.28;;;23.50;26.50;;;;;;5025376;28;20238;-58
2021/01/22 13:09:43;;;;;;;8.23;3.58;;;23.50;26.60;;;;;;5023315;28;20253;-58
2021/01/22 13:12:09;;;;;;;9.70;4.40;;;23.50;26.70;;;;;;5033098;28;20245;-58
2021/01/22 13:14:37;;;;;;;9.82;4.30;;;23.50;26.70;;;;;;5034043;28;20199;-58
2021/01/22 13:17:03;;;;;;;7.53;3.38;;;23.60;26.90;;;;;;5032033;28;20226;-58
2021/01/22 13:19:29;;;;;;;7.43;3.85;;;23.50;27.00;;;;;;5032153;28;20281;-56
2021/01/22 13:21:55;;;;;;;8.48;3.95;;;23.60;27.10;;;;;;5029034;28;20210;-54
2021/01/22 13:24:21;;;;;;;7.05;3.63;;;23.60;27.30;;;;;;5033200;28;20572;-53
2021/01/22 13:26:47;;;;;;;7.10;3.67;;;23.50;27.40;;;;;;5030144;28;20675;-53
2021/01/22 13:29:13;;;;;;;10.52;3.72;;;23.50;27.50;;;;;;5030459;28;20207;-53
2021/01/22 13:31:39;;;;;;;8.68;3.40;;;23.50;27.50;;;;;;5033221;28;20230;-51
2021/01/22 13:34:05;;;;;;;5.68;3.38;;;23.50;27.60;;;;;;5028152;28;20226;-48
2021/01/22 13:36:31;;;;;;;6.55;3.75;;;23.50;27.70;;;;;;5016040;28;20222;-51
2021/01/22 13:38:56;;;;;;;5.60;3.00;;;23.50;27.80;;;;;;5032566;28;20214;-51
2021/01/22 13:41:22;;;;;;;7.93;3.47;;;23.50;27.80;;;;;;5033165;28;20214;-51
2021/01/22 13:43:48;;;;;;;6.90;3.03;;;23.50;28.00;;;;;;5032910;28;20198;-52
2021/01/22 13:46:14;;;;;;;5.82;3.50;;;23.40;28.00;;;;;;5031341;28;20690;-51
2021/01/22 13:48:40;;;;;;;6.93;2.92;;;23.40;27.90;;;;;;5018506;28;20258;-53
2021/01/22 13:51:06;;;;;;;6.57;3.07;;;23.50;28.00;;;;;;5026223;28;20234;-52
2021/01/22 13:53:32;;;;;;;5.45;3.03;;;23.50;28.20;;;;;;5031101;28;20217;-53
2021/01/22 13:55:58;;;;;;;4.80;2.42;;;23.50;28.00;;;;;;5033012;28;20224;-55
2021/01/22 13:58:24;;;;;;;4.87;2.47;;;23.50;28.00;;;;;;5031723;28;20207;-54
2021/01/22 14:00:50;;;;;;;5.68;3.10;;;23.50;28.00;;;;;;5032327;28;20203;-52
2021/01/22 14:03:16;;;;;;;4.53;2.55;;;23.50;28.30;;;;;;5032080;28;20190;-49
2021/01/22 14:05:41;;;;;;;7.17;3.17;;;23.50;28.40;;;;;;5031023;28;20245;-53
2021/01/22 14:08:07;;;;;;;6.80;2.63;;;23.50;28.40;;;;;;5018109;28;20302;-52
2021/01/22 14:10:33;;;;;;;4.60;2.10;;;23.50;28.40;;;;;;5030755;28;20233;-49
2021/01/22 14:12:59;;;;;;;4.77;2.37;;;23.50;28.40;;;;;;5021220;28;20198;-54
2021/01/22 14:18:02;;;;;;;4.22;2.70;;;23.40;28.80;;;;;;5025866;28;20272;-58
2021/01/22 14:20:28;;;;;;;4.78;2.28;;;23.40;28.70;;;;;;5031918;28;20202;-58
2021/01/22 14:22:54;;;;;;;5.87;2.50;;;23.40;28.70;;;;;;5031733;28;20198;-58
2021/01/22 14:25:20;;;;;;;4.40;2.38;;;23.40;28.80;;;;;;5032294;28;20210;-58
2021/01/22 14:27:46;;;;;;;6.33;2.90;;;23.40;28.80;;;;;;5031398;28;20268;-57
2021/01/22 14:30:12;;;;;;;4.70;2.75;;;23.40;28.90;;;;;;5032908;28;20249;-58
2021/01/22 14:32:39;;;;;;;6.95;2.25;;;23.40;28.90;;;;;;5031988;28;20612;-57
2021/01/22 14:35:05;;;;;;;3.78;2.22;;;23.40;29.00;;;;;;5032795;28;20673;-57
2021/01/22 14:37:31;;;;;;;5.68;2.53;;;23.40;29.00;;;;;;5029798;28;20226;-58
2021/01/22 14:39:57;;;;;;;3.60;2.27;;;23.40;29.10;;;;;;5032040;28;20214;-58
2021/01/22 14:42:23;;;;;;;3.95;2.10;;;23.40;29.10;;;;;;5028599;28;20732;-56
2021/01/22 14:44:49;;;;;;;5.43;2.97;;;23.40;29.20;;;;;;5015229;28;20211;-57
2021/01/22 14:47:15;;;;;;;5.43;2.50;;;23.30;29.10;;;;;;5031885;28;20226;-58
2021/01/22 14:49:40;;;;;;;5.20;2.53;;;23.30;29.10;;;;;;5030850;28;20202;-58
2021/01/22 14:52:06;;;;;;;4.97;2.53;;;23.30;29.20;;;;;;5032220;28;20210;-58
2021/01/22 14:54:32;;;;;;;4.83;2.50;;;23.40;29.30;;;;;;5031890;28;20213;-58
2021/01/22 14:56:59;;;;;;;5.60;2.40;;;23.40;29.30;;;;;;5030991;28;20226;-56
2021/01/22 14:59:24;;;;;;;4.50;2.50;;;23.40;29.30;;;;;;5023564;28;20203;-58
2021/01/22 15:01:50;;;;;;;3.58;2.58;;;23.40;29.30;;;;;;5013641;28;20217;-58
2021/01/22 15:04:16;;;;;;;4.47;2.00;;;23.40;29.50;;;;;;5012761;28;20207;-55
2021/01/22 15:06:42;;;;;;;5.87;2.80;;;23.40;29.40;;;;;;5013893;28;20223;-58
2021/01/22 15:09:08;;;;;;;8.83;2.83;;;23.40;29.50;;;;;;5029637;28;20281;-57
2021/01/22 15:11:34;;;;;;;4.47;2.73;;;23.40;29.50;;;;;;5025163;28;20637;-57
2021/01/22 15:14:00;;;;;;;4.82;2.88;;;23.40;29.60;;;;;;5031191;28;20693;-57
2021/01/22 15:16:26;;;;;;;3.43;2.13;;;23.30;29.50;;;;;;5031137;28;20610;-58
2021/01/22 15:18:52;;;;;;;4.00;2.53;;;23.40;29.70;;;;;;5029427;28;20210;-58
2021/01/22 15:21:18;;;;;;;4.40;2.60;;;23.40;29.70;;;;;;5029367;28;20213;-58
2021/01/22 15:23:44;;;;;;;6.73;2.70;;;23.30;29.60;;;;;;5025201;28;20194;-57
2021/01/22 15:26:10;;;;;;;5.27;2.90;;;23.30;29.70;;;;;;5029220;28;20222;-55
2021/01/22 15:28:36;;;;;;;5.07;2.60;;;23.30;29.80;;;;;;5030266;28;20213;-57
2021/01/22 15:31:01;;;;;;;6.22;2.53;;;23.30;29.80;;;;;;5030375;28;20292;-57
2021/01/22 15:33:27;;;;;;;6.70;3.20;;;23.30;30.00;;;;;;5023282;28;20218;-58
2021/01/22 15:35:53;;;;;;;6.50;2.70;;;23.30;30.10;;;;;;5030615;28;20222;-57
2021/01/22 15:38:19;;;;;;;7.87;3.23;;;23.30;30.10;;;;;;5022335;28;20202;-59
2021/01/22 15:40:45;;;;;;;5.23;2.87;;;23.30;30.30;;;;;;5031018;28;20206;-57
2021/01/22 15:43:11;;;;;;;6.78;2.90;;;23.30;30.40;;;;;;5031056;28;20271;-57
2021/01/22 15:45:37;;;;;;;4.03;2.95;;;23.30;30.40;;;;;;5028922;28;20206;-58
2021/01/22 15:48:03;;;;;;;3.78;2.60;;;23.30;30.40;;;;;;5028838;28;20666;-55
2021/01/22 15:50:29;;;;;;;6.03;2.40;;;23.30;30.30;;;;;;5028256;28;20237;-47
2021/01/22 15:52:55;;;;;;;4.20;2.28;;;23.30;30.00;;;;;;5027306;28;20230;-43
2021/01/22 15:55:21;;;;;;;6.80;2.22;;;23.40;29.90;;;;;;5030100;28;20203;-51
2021/01/22 15:57:46;;;;;;;5.20;2.63;;;23.50;29.60;;;;;;5029855;28;20217;-54
2021/01/22 16:00:12;;;;;;;4.18;2.63;;;23.60;29.40;;;;;;5031407;28;20199;-54
2021/01/22 16:02:38;;;;;;;2.95;2.53;;;23.60;29.20;;;;;;5030707;28;20213;-57
2021/01/22 16:05:04;;;;;;;5.47;2.80;;;23.60;29.10;;;;;;5030069;28;20249;-50
2021/01/22 16:07:30;;;;;;;3.55;2.35;;;23.60;29.00;;;;;;5023385;28;20691;-55
2021/01/22 16:09:56;;;;;;;9.93;2.30;;;23.60;28.50;;;;;;5025866;28;20682;-43
2021/01/22 16:12:22;;;;;;;5.38;2.10;;;23.60;28.90;;;;;;5030371;28;20267;-45
2021/01/22 16:14:48;;;;;;;4.47;2.60;;;23.60;28.60;;;;;;5029986;28;20206;-58
2021/01/22 16:17:15;;;;;;;8.15;2.03;;;23.60;28.40;;;;;;5030456;28;20245;-50
2021/01/22 16:19:41;;;;;;;4.78;2.13;;;23.50;28.40;;;;;;5030085;28;20289;-57
2021/01/22 16:22:07;;;;;;;4.72;1.90;;;23.40;28.30;;;;;;5030031;28;20195;-46
2021/01/22 16:24:33;;;;;;;4.63;2.10;;;23.40;28.90;;;;;;5019903;28;20527;-43
2021/01/22 16:26:59;;;;;;;4.60;2.17;;;23.40;28.30;;;;;;5029380;28;20260;-40
2021/01/22 16:29:25;;;;;;;5.15;2.00;;;23.40;28.30;;;;;;5030369;28;20199;-42
2021/01/22 16:31:51;;;;;;;3.33;2.03;;;23.40;28.30;;;;;;5031151;28;20234;-40
2021/01/22 16:34:17;;;;;;;3.28;1.70;;;23.40;28.30;;;;;;5024201;28;20615;-48
2021/01/22 16:36:43;;;;;;;2.58;1.90;;;23.40;28.10;;;;;;5027363;28;20230;-53
2021/01/22 16:39:08;;;;;;;3.88;2.00;;;23.50;28.20;;;;;;5033857;28;20248;-50
2021/01/22 16:41:34;;;;;;;5.15;2.00;;;23.50;27.90;;;;;;5032206;28;20214;-47
2021/01/22 16:44:00;;;;;;;3.65;2.05;;;23.50;27.70;;;;;;5034152;28;20261;-51
2021/01/22 16:46:26;;;;;;;3.65;1.92;;;23.50;27.80;;;;;;5034311;28;20218;-41
2021/01/22 16:48:52;;;;;;;3.25;2.03;;;23.50;27.60;;;;;;5033632;28;20324;-36
2021/01/22 16:51:18;;;;;;;3.50;1.80;;;23.50;27.50;;;;;;5033970;28;20291;-43
2021/01/22 16:53:44;;;;;;;5.80;1.70;;;23.60;27.70;;;;;;5034454;28;20202;-42
2021/01/22 16:56:10;;;;;;;5.05;1.98;;;23.50;27.60;;;;;;5031536;28;20643;-45
2021/01/22 16:58:36;;;;;;;4.13;2.13;;;23.50;27.10;;;;;;5032131;28;20203;-45
2021/01/22 17:01:02;;;;;;;3.42;2.00;;;23.60;27.70;;;;;;5033996;28;20210;-48
2021/01/22 17:03:29;;;;;;;3.17;2.03;;;23.70;27.70;;;;;;5034009;28;20207;-49
2021/01/22 17:05:55;;;;;;;2.88;1.83;;;23.60;27.40;;;;;;5033280;28;20257;-49
2021/01/22 17:08:21;;;;;;;3.25;1.70;;;23.60;27.50;;;;;;5032591;28;20198;-50
2021/01/22 17:10:47;;;;;;;3.28;1.80;;;23.60;27.30;;;;;;5033598;28;20597;-48
2021/01/22 17:13:12;;;;;;;2.65;1.80;;;23.50;27.30;;;;;;5033089;28;20704;-46
2021/01/22 17:15:38;;;;;;;2.38;1.60;;;23.50;27.20;;;;;;5031913;28;20375;-51
2021/01/22 17:18:04;;;;;;;5.05;2.03;;;23.50;27.60;;;;;;5032396;28;20195;-36
2021/01/22 17:20:30;;;;;;;2.67;1.77;;;23.50;27.00;;;;;;5032893;28;20205;-45
2021/01/22 17:22:56;;;;;;;2.95;1.90;;;23.50;27.10;;;;;;5033946;28;20240;-41
2021/01/22 17:25:22;;;;;;;3.50;2.08;;;23.50;27.20;;;;;;5031716;28;21963;-42
2021/01/22 17:27:49;;;;;;;2.78;2.28;;;23.70;27.40;;;;;;5030139;28;20194;-40
2021/01/22 17:30:15;;;;;;;2.88;2.22;;;23.70;27.10;;;;;;5030000;28;20226;-44
2021/01/22 17:32:41;;;;;;;2.33;1.77;;;23.70;27.30;;;;;;5031089;28;20209;-37
2021/01/22 17:35:06;;;;;;;5.93;2.40;;;23.70;27.60;;;;;;5027375;28;20542;-35
2021/01/22 17:37:33;;;;;;;3.42;2.58;;;23.70;27.70;;;;;;5032502;28;20205;-35
2021/01/22 17:39:59;;;;;;;5.10;2.55;;;23.80;27.10;;;;;;5029720;28;20217;-34
2021/01/22 17:42:25;;;;;;;3.08;2.75;;;23.80;27.20;;;;;;5027723;28;20203;-40
2021/01/22 17:44:51;;;;;;;2.60;2.33;;;23.80;27.10;;;;;;5029981;28;20206;-38
2021/01/22 17:47:17;;;;;;;6.57;2.40;;;23.80;27.60;;;;;;5031438;28;20348;-36
2021/01/22 17:49:43;;;;;;;2.33;2.13;;;23.80;27.00;;;;;;5028302;28;20206;-37
2021/01/22 17:52:09;;;;;;;3.95;2.20;;;23.70;27.20;;;;;;5031806;28;20643;-40
2021/01/22 17:54:36;;;;;;;5.75;2.47;;;23.70;27.20;;;;;;5032931;28;20198;-40
2021/01/22 17:57:02;;;;;;;3.00;2.70;;;23.70;27.10;;;;;;5030499;28;20218;-40
2021/01/22 17:59:28;;;;;;;4.32;2.45;;;23.70;26.60;;;;;;5030025;28;20206;-40
2021/01/22 18:01:54;;;;;;;4.63;2.45;;;23.70;26.90;;;;;;5032314;28;20655;-35
2021/01/22 18:04:20;;;;;;;3.08;2.40;;;23.70;26.60;;;;;;5034051;28;20214;-34
2021/01/22 18:06:46;;;;;;;3.60;2.60;;;23.70;27.00;;;;;;5025924;28;20234;-39
2021/01/22 18:09:12;;;;;;;5.32;2.88;;;23.70;27.00;;;;;;5028914;28;20201;-38
2021/01/22 18:11:38;;;;;;;4.38;2.83;;;23.70;26.30;;;;;;5032326;28;20226;-36
2021/01/22 18:14:04;;;;;;;3.40;3.10;;;23.70;26.50;;;;;;5030159;28;20642;-39
2021/01/22 18:16:30;;;;;;;4.72;3.05;;;23.60;26.40;;;;;;5018853;28;20241;-37
2021/01/22 18:18:56;;;;;;;5.93;3.00;;;23.60;26.40;;;;;;5031253;28;20211;-38
2021/01/22 18:21:21;;;;;;;3.67;2.63;;;23.60;26.30;;;;;;5032270;28;20214;-35
2021/01/22 18:23:47;;;;;;;3.20;2.80;;;23.60;26.50;;;;;;5026981;28;20206;-38
2021/01/22 18:26:13;;;;;;;5.45;2.72;;;23.50;26.70;;;;;;5030873;28;20222;-37
2021/01/22 18:28:39;;;;;;;5.20;2.95;;;23.50;26.40;;;;;;5022944;28;20652;-37
2021/01/22 18:31:05;;;;;;;2.78;2.50;;;23.50;26.20;;;;;;5031416;28;20233;-37
2021/01/22 18:33:31;;;;;;;3.03;2.35;;;23.50;26.30;;;;;;5032186;28;20206;-38
2021/01/22 18:35:57;;;;;;;4.15;2.95;;;23.50;26.40;;;;;;5030742;28;20226;-36
2021/01/22 18:38:23;;;;;;;3.33;2.58;;;23.50;26.90;;;;;;5027614;28;20198;-37
2021/01/22 18:40:49;;;;;;;3.97;2.73;;;23.50;26.20;;;;;;5026143;28;20680;-37
2021/01/22 18:43:15;;;;;;;4.10;2.63;;;23.50;26.00;;;;;;5028862;28;20226;-37
2021/01/22 18:45:40;;;;;;;2.60;2.40;;;23.50;26.00;;;;;;5029142;28;20445;-36
2021/01/22 18:48:06;;;;;;;5.95;2.95;;;23.50;26.00;;;;;;5024816;28;20210;-38
2021/01/22 18:50:32;;;;;;;3.43;2.57;;;23.50;25.90;;;;;;5032231;28;20233;-37
2021/01/22 18:52:58;;;;;;;2.87;2.57;;;23.40;25.80;;;;;;5031964;28;20206;-37
2021/01/22 18:55:24;;;;;;;3.67;2.90;;;23.40;25.80;;;;;;5028966;28;20721;-38
2021/01/22 18:57:50;;;;;;;3.50;3.17;;;23.40;25.80;;;;;;5028943;28;20226;-36
2021/01/22 19:00:16;;;;;;;3.50;3.03;;;23.40;25.80;;;;;;5031099;28;20213;-36
2021/01/22 19:02:42;;;;;;;3.97;3.00;;;23.40;25.70;;;;;;5025776;28;20206;-38
2021/01/22 19:05:08;;;;;;;4.20;3.03;;;23.40;25.80;;;;;;5027534;28;20245;-38
2021/01/22 19:07:34;;;;;;;3.10;2.77;;;23.40;25.70;;;;;;5030159;28;20682;-34
2021/01/22 19:09:59;;;;;;;3.77;2.90;;;23.40;25.70;;;;;;5025720;28;20216;-36
2021/01/22 19:12:25;;;;;;;3.57;2.63;;;23.40;25.70;;;;;;5027403;28;20210;-37
2021/01/22 19:14:51;;;;;;;3.20;2.90;;;23.40;26.30;;;;;;5031167;28;20233;-38
2021/01/22 19:17:17;;;;;;;3.30;2.87;;;23.40;25.70;;;;;;5030349;28;20214;-38
2021/01/22 19:19:43;;;;;;;5.03;3.20;;;23.40;25.80;;;;;;5031076;28;20263;-39
2021/01/22 19:22:09;;;;;;;3.07;2.60;;;23.40;25.70;;;;;;5024586;28;20217;-36
2021/01/22 19:24:35;;;;;;;3.63;3.33;;;23.40;25.80;;;;;;5026773;28;20249;-37
2021/01/22 19:27:01;;;;;;;5.07;3.00;;;23.40;25.80;;;;;;5029956;28;20214;-37
2021/01/22 19:29:27;;;;;;;3.30;2.90;;;23.40;25.80;;;;;;5028820;28;20206;-37
2021/01/22 19:31:53;;;;;;;3.83;3.37;;;23.40;25.70;;;;;;5015531;28;20240;-36
2021/01/22 19:34:19;;;;;;;3.43;3.13;;;23.30;25.60;;;;;;5031474;28;20203;-36
2021/01/22 19:36:45;;;;;;;4.13;3.40;;;23.30;25.70;;;;;;5027922;28;20233;-37
2021/01/22 19:39:11;;;;;;;4.47;3.60;;;23.30;25.60;;;;;;5029745;28;20673;-39
2021/01/22 19:41:37;;;;;;;3.80;3.30;;;23.30;25.60;;;;;;5028634;28;20218;-38
2021/01/22 19:44:02;;;;;;;4.40;2.87;;;23.30;25.60;;;;;;5025973;28;20211;-36
2021/01/22 19:46:28;;;;;;;3.23;2.93;;;23.30;25.60;;;;;;5030459;28;20229;-38
2021/01/22 19:48:55;;;;;;;5.60;3.00;;;23.30;25.60;;;;;;5029239;28;20205;-38
2021/01/22 19:51:21;;;;;;;3.87;3.00;;;23.30;25.50;;;;;;5030023;28;20292;-38
2021/01/22 19:53:47;;;;;;;5.33;3.00;;;23.30;25.40;;;;;;5024129;28;20215;-37
2021/01/22 19:56:13;;;;;;;4.37;3.30;;;23.30;25.50;;;;;;5011718;28;20637;-36
2021/01/22 19:58:39;;;;;;;3.50;3.20;;;23.30;25.40;;;;;;5028644;28;20202;-42
2021/01/22 20:01:05;;;;;;;3.60;3.30;;;23.30;25.50;;;;;;5026948;28;20273;-46
2021/01/22 20:03:31;;;;;;;3.87;2.83;;;23.30;25.90;;;;;;5028841;28;20217;-48
2021/01/22 20:05:57;;;;;;;3.40;2.77;;;23.30;26.00;;;;;;5020424;28;20232;-43
2021/01/22 20:08:23;;;;;;;4.43;2.90;;;23.30;26.20;;;;;;5030069;28;20210;-41
2021/01/22 20:10:49;;;;;;;2.70;2.50;;;23.30;26.20;;;;;;5028322;28;20229;-43
2021/01/22 20:13:15;;;;;;;3.37;3.07;;;23.30;26.50;;;;;;5033040;28;20204;-41
2021/01/22 20:15:41;;;;;;;2.70;2.50;;;23.30;26.60;;;;;;5031376;28;20226;-39
2021/01/22 20:18:07;;;;;;;2.80;2.60;;;23.30;26.70;;;;;;5030362;28;20203;-43
2021/01/22 20:20:32;;;;;;;2.60;2.40;;;23.30;26.80;;;;;;5031155;28;20210;-43
2021/01/22 20:22:59;;;;;;;3.13;2.80;;;23.30;26.90;;;;;;5032883;28;20280;-46
2021/01/22 20:25:25;;;;;;;3.00;2.60;;;23.30;27.00;;;;;;5033208;28;20743;-45
2021/01/22 20:27:51;;;;;;;5.17;2.57;;;23.30;27.00;;;;;;5029807;28;20206;-43
2021/01/22 20:30:18;;;;;;;2.93;2.60;;;23.30;27.10;;;;;;5032334;28;20269;-50
2021/01/22 20:32:44;;;;;;;3.47;3.17;;;23.30;27.20;;;;;;5034013;28;20241;-42
2021/01/22 20:35:11;;;;;;;2.77;2.50;;;23.30;27.20;;;;;;5032877;28;20229;-44
2021/01/22 20:37:37;;;;;;;3.07;2.50;;;23.30;27.30;;;;;;5032279;28;20199;-48
2021/01/22 20:40:03;;;;;;;3.23;2.77;;;23.30;27.40;;;;;;5031524;28;20252;-42
2021/01/22 20:42:29;;;;;;;3.13;2.47;;;23.30;27.40;;;;;;5032215;28;20194;-40
2021/01/22 20:44:55;;;;;;;2.83;2.43;;;23.30;27.50;;;;;;5033907;28;20228;-49
2021/01/22 20:47:23;;;;;;;3.03;2.73;;;23.30;27.50;;;;;;5031742;28;20206;-46
2021/01/22 20:49:49;;;;;;;3.23;2.77;;;23.30;27.50;;;;;;5030712;28;20237;-45
2021/01/22 20:52:14;;;;;;;3.07;2.77;;;23.30;27.50;;;;;;5029909;28;20226;-49
2021/01/22 20:54:40;;;;;;;2.50;2.30;;;23.30;27.50;;;;;;5027804;28;20566;-52
2021/01/22 20:57:06;;;;;;;4.33;3.30;;;23.30;27.50;;;;;;5028194;28;20213;-39
2021/01/22 20:59:32;;;;;;;3.20;2.90;;;23.30;27.50;;;;;;5029593;28;20206;-46
2021/01/22 21:01:58;;;;;;;3.10;2.60;;;23.30;27.50;;;;;;5023782;28;20214;-42
2021/01/22 21:04:24;;;;;;;3.17;2.80;;;23.30;27.50;;;;;;5031705;28;20247;-46
2021/01/22 21:06:50;;;;;;;3.00;2.70;;;23.30;27.50;;;;;;5033566;28;20198;-52
2021/01/22 21:09:16;;;;;;;2.70;2.43;;;23.30;27.60;;;;;;5031098;28;20208;-41
2021/01/22 21:11:42;;;;;;;4.17;2.80;;;23.30;27.80;;;;;;5031990;28;20617;-42
2021/01/22 21:14:08;;;;;;;3.47;2.20;;;23.30;27.80;;;;;;5023509;28;20418;-43
2021/01/22 21:16:34;;;;;;;3.73;2.63;;;23.30;27.90;;;;;;5033711;28;20271;-45
2021/01/22 21:19:00;;;;;;;3.20;2.50;;;23.30;27.90;;;;;;5026230;28;20255;-41
2021/01/22 21:21:25;;;;;;;2.97;2.53;;;23.30;28.10;;;;;;5029955;28;20568;-43
2021/01/22 21:23:51;;;;;;;4.90;2.57;;;23.30;28.30;;;;;;5028552;28;20624;-40
2021/01/22 21:26:17;;;;;;;4.27;2.73;;;23.30;28.20;;;;;;5029223;28;20206;-39
2021/01/22 21:28:45;;;;;;;4.03;2.50;;;23.30;28.20;;;;;;5028555;28;20210;-40
2021/01/22 21:31:11;;;;;;;3.03;2.73;;;23.30;28.20;;;;;;5032301;28;20230;-37
2021/01/22 21:33:40;;;;;;;3.03;2.57;;;23.30;28.20;;;;;;5021037;28;20257;-39
2021/01/22 21:36:06;;;;;;;3.17;2.80;;;23.30;28.20;;;;;;5025284;28;20270;-40
2021/01/22 21:38:32;;;;;;;2.70;2.50;;;23.30;28.20;;;;;;5031408;28;20209;-44
2021/01/22 21:40:58;;;;;;;2.70;2.50;;;23.30;28.20;;;;;;5033017;28;20209;-39
2021/01/22 21:43:23;;;;;;;3.60;2.73;;;23.30;28.20;;;;;;5031642;28;20213;-42
2021/01/22 21:45:49;;;;;;;2.93;2.63;;;23.30;28.20;;;;;;5031245;28;20210;-43
2021/01/22 21:48:15;;;;;;;2.60;2.40;;;23.30;28.20;;;;;;5018676;28;20217;-42
2021/01/22 21:50:41;;;;;;;2.47;2.27;;;23.30;28.20;;;;;;5030874;28;20301;-40
2021/01/22 21:53:07;;;;;;;2.50;2.30;;;23.30;28.30;;;;;;5032066;28;20819;-43
2021/01/22 21:55:33;;;;;;;2.53;2.33;;;23.30;28.20;;;;;;5029680;28;20225;-40
2021/01/22 21:57:59;;;;;;;2.67;2.37;;;23.30;28.20;;;;;;5013523;28;20205;-46
2021/01/22 22:00:25;;;;;;;3.70;2.50;;;23.30;28.20;;;;;;5030329;28;20217;-40
2021/01/22 22:02:51;;;;;;;2.73;2.20;;;23.30;28.20;;;;;;5030594;28;20211;-54
2021/01/22 22:05:17;;;;;;;3.00;2.80;;;23.30;28.20;;;;;;5029701;28;20215;-47
2021/01/22 22:07:43;;;;;;;3.30;3.00;;;23.30;28.30;;;;;;5031933;28;20549;-43
2021/01/22 22:10:09;;;;;;;2.60;2.40;;;23.30;28.40;;;;;;5031526;28;20228;-46
2021/01/22 22:12:35;;;;;;;2.70;2.50;;;23.30;28.30;;;;;;5031705;28;20205;-38
2021/01/22 22:15:01;;;;;;;2.80;2.50;;;23.30;28.30;;;;;;5023726;28;20237;-40
2021/01/22 22:17:27;;;;;;;2.60;2.40;;;23.30;28.30;;;;;;5031594;28;20243;-45
2021/01/22 22:19:53;;;;;;;2.50;2.30;;;23.30;28.30;;;;;;5028664;28;20675;-48
2021/01/22 22:22:18;;;;;;;3.30;2.50;;;23.30;28.40;;;;;;5031406;28;20205;-43
2021/01/22 22:24:44;;;;;;;2.63;2.43;;;23.30;28.50;;;;;;5030288;28;20225;-49
2021/01/22 22:27:10;;;;;;;2.50;2.30;;;23.30;28.50;;;;;;5028771;28;20208;-43
2021/01/22 22:29:36;;;;;;;2.53;2.00;;;23.30;28.60;;;;;;5031981;28;20216;-46
2021/01/22 22:32:02;;;;;;;2.60;2.40;;;23.30;28.60;;;;;;5031086;28;20227;-51
2021/01/22 22:34:28;;;;;;;3.70;2.53;;;23.30;28.60;;;;;;5030022;28;20223;-42
2021/01/22 22:36:54;;;;;;;2.83;2.40;;;23.30;28.60;;;;;;5030750;28;20214;-43
2021/01/22 22:39:20;;;;;;;2.60;2.40;;;23.30;28.70;;;;;;5029542;28;20214;-50
2021/01/22 22:41:46;;;;;;;2.53;2.33;;;23.30;28.70;;;;;;5032167;28;20232;-41
2021/01/22 22:44:12;;;;;;;3.00;2.30;;;23.30;28.80;;;;;;5031497;28;20691;-46
2021/01/22 22:46:38;;;;;;;2.67;2.40;;;23.30;28.80;;;;;;5029655;28;20206;-40
2021/01/22 22:49:04;;;;;;;2.50;2.30;;;23.30;28.80;;;;;;5024401;28;20206;-47
2021/01/22 22:51:30;;;;;;;2.43;2.23;;;23.30;28.80;;;;;;5030645;28;20245;-42
2021/01/22 22:53:55;;;;;;;3.20;2.20;;;23.30;28.80;;;;;;5029904;28;20235;-53
2021/01/22 22:56:21;;;;;;;3.07;2.40;;;23.30;29.30;;;;;;5028845;28;22009;-44
2021/01/22 22:58:47;;;;;;;2.40;2.20;;;23.30;28.80;;;;;;5031658;28;20667;-40
2021/01/22 23:01:13;;;;;;;2.93;2.67;;;23.30;28.80;;;;;;5030988;28;20220;-40
2021/01/22 23:03:39;;;;;;;2.80;2.40;;;23.30;28.90;;;;;;5030720;28;20225;-45
2021/01/22 23:06:05;;;;;;;2.67;2.47;;;23.30;28.90;;;;;;5030860;28;20245;-48
2021/01/22 23:08:31;;;;;;;3.43;2.93;;;23.30;28.80;;;;;;5030642;28;20213;-42
2021/01/22 23:10:57;;;;;;;2.87;2.60;;;23.30;28.90;;;;;;5030278;28;20232;-42
2021/01/22 23:13:23;;;;;;;2.50;2.30;;;23.30;28.90;;;;;;5017066;28;20229;-42
2021/01/22 23:15:49;;;;;;;2.03;1.93;;;23.30;28.80;;;;;;5030611;28;20227;-46
2021/01/22 23:18:15;;;;;;;2.50;2.30;;;23.30;28.80;;;;;;5030570;28;20212;-43
2021/01/22 23:20:41;;;;;;;4.90;2.53;;;23.30;28.90;;;;;;5031258;28;20263;-52
2021/01/22 23:23:07;;;;;;;2.40;2.20;;;23.30;28.90;;;;;;5030878;28;20315;-45
2021/01/22 23:25:33;;;;;;;2.60;2.40;;;23.30;28.80;;;;;;5028245;28;20209;-51
2021/01/22 23:28:00;;;;;;;2.33;2.13;;;23.30;28.80;;;;;;5030112;28;20210;-47
2021/01/22 23:30:26;;;;;;;2.83;2.50;;;23.30;28.80;;;;;;5030635;28;20218;-41
2021/01/22 23:32:52;;;;;;;2.63;2.30;;;23.30;28.80;;;;;;5030403;28;20208;-50
2021/01/22 23:35:18;;;;;;;2.83;2.27;;;23.30;29.00;;;;;;5029028;28;20214;-46
2021/01/22 23:37:44;;;;;;;2.30;2.10;;;23.30;29.00;;;;;;5029272;28;20288;-45
2021/01/22 23:40:09;;;;;;;2.43;2.23;;;23.30;29.00;;;;;;5025510;28;20621;-46
